createdAt,value
2022-08-02T00:00:38.782Z,18.30
2022-08-02T00:05:40.569Z,18.30
2022-08-02T00:10:42.528Z,18.10
2022-08-02T00:15:44.255Z,18.00
2022-08-02T00:20:45.980Z,18.00
2022-08-02T00:25:55.365Z,17.90
2022-08-02T00:30:58.281Z,17.80
2022-08-02T00:36:00.146Z,17.80
2022-08-02T00:41:01.969Z,17.70
2022-08-02T00:46:04.085Z,17.60
2022-08-02T00:51:05.865Z,17.60
2022-08-02T00:56:07.929Z,17.50
2022-08-02T01:01:09.853Z,17.50
2022-08-02T01:06:11.979Z,17.40
2022-08-02T01:11:13.968Z,17.40
2022-08-02T01:16:21.305Z,17.40
2022-08-02T01:21:47.940Z,17.40
2022-08-02T01:26:57.900Z,17.30
2022-08-02T01:32:11.101Z,17.30
2022-08-02T01:37:36.237Z,17.40
2022-08-02T01:42:43.297Z,17.30
2022-08-02T01:47:46.549Z,17.40
2022-08-02T01:52:53.309Z,17.40
2022-08-02T01:58:04.079Z,17.30
2022-08-02T02:03:09.129Z,17.30
2022-08-02T02:08:11.908Z,17.30
2022-08-02T02:13:17.035Z,17.30
2022-08-02T02:18:23.315Z,17.20
2022-08-02T02:23:26.027Z,17.20
2022-08-02T02:28:30.740Z,17.10
2022-08-02T02:33:35.231Z,17.20
2022-08-02T02:38:37.120Z,17.10
2022-08-02T02:43:39.098Z,17.10
2022-08-02T02:48:41.442Z,17.10
2022-08-02T02:54:32.169Z,17.00
2022-08-02T02:59:09.068Z,17.00
2022-08-02T03:04:12.483Z,16.90
2022-08-02T03:09:14.325Z,16.80
2022-08-02T03:14:17.367Z,16.80
2022-08-02T03:19:21.366Z,16.90
2022-08-02T03:24:27.794Z,16.80
2022-08-02T03:29:34.331Z,16.80
2022-08-02T03:34:36.417Z,16.80
2022-08-02T03:39:38.665Z,16.80
2022-08-02T03:44:56.464Z,16.80
2022-08-02T03:49:59.180Z,16.80
2022-08-02T03:55:00.999Z,16.70
2022-08-02T04:00:03.046Z,16.70
2022-08-02T04:05:05.301Z,16.70
2022-08-02T04:10:07.312Z,16.70
2022-08-02T04:15:11.052Z,16.70
2022-08-02T04:20:18.982Z,16.60
2022-08-02T04:25:21.198Z,16.60
2022-08-02T04:30:38.083Z,16.60
2022-08-02T04:35:39.849Z,16.50
2022-08-02T04:40:49.765Z,16.50
2022-08-02T04:45:55.668Z,16.50
2022-08-02T04:50:57.778Z,16.50
2022-08-02T04:55:59.641Z,16.40
2022-08-02T05:01:01.438Z,16.30
2022-08-02T05:06:03.543Z,16.40
2022-08-02T05:11:34.214Z,16.50
2022-08-02T05:16:37.865Z,16.50
2022-08-02T05:21:39.638Z,16.50
2022-08-02T05:26:41.369Z,16.50
2022-08-02T05:31:43.223Z,16.60
2022-08-02T05:36:51.734Z,16.60
2022-08-02T05:41:54.381Z,16.70
2022-08-02T05:46:59.357Z,16.90
2022-08-02T05:52:16.988Z,16.90
2022-08-02T05:57:34.092Z,17.00
2022-08-02T06:03:25.481Z,17.10
2022-08-02T06:08:44.538Z,17.10
2022-08-02T06:13:49.754Z,17.20
2022-08-02T06:18:51.661Z,17.30
2022-08-02T06:23:57.560Z,17.40
2022-08-02T06:29:01.358Z,17.50
2022-08-02T06:34:03.213Z,17.70
2022-08-02T06:39:14.299Z,17.70
2022-08-02T06:49:52.631Z,18.00
2022-08-02T06:55:00.608Z,18.20
2022-08-02T07:00:06.607Z,18.40
2022-08-02T07:05:09.409Z,18.60
2022-08-02T07:10:11.513Z,18.70
2022-08-02T07:15:13.784Z,18.90
2022-08-02T07:20:15.547Z,19.10
2022-08-02T07:25:17.369Z,19.30
2022-08-02T07:30:19.178Z,19.50
2022-08-02T07:35:21.842Z,19.70
2022-08-02T07:40:24.877Z,19.80
2022-08-02T07:45:27.801Z,20.10
2022-08-02T07:50:29.990Z,20.30
2022-08-02T07:55:39.295Z,20.60
2022-08-02T08:00:45.044Z,20.80
2022-08-02T08:05:47.554Z,21.00
2022-08-02T08:10:49.336Z,21.10
2022-08-02T08:15:52.200Z,21.30
2022-08-02T08:20:54.570Z,21.60
2022-08-02T08:25:56.345Z,21.70
2022-08-02T08:30:58.264Z,21.90
2022-08-02T08:36:00.138Z,22.10
2022-08-02T08:41:04.706Z,22.30
2022-08-02T08:46:12.214Z,22.70
2022-08-02T08:51:18.266Z,22.90
2022-08-02T08:56:20.833Z,23.20
2022-08-02T09:01:22.640Z,23.50
2022-08-02T09:06:25.188Z,23.70
2022-08-02T09:11:27.046Z,23.90
2022-08-02T09:16:30.085Z,24.10
2022-08-02T09:21:37.525Z,24.30
2022-08-02T09:26:39.371Z,24.40
2022-08-02T09:31:49.527Z,24.50
2022-08-02T09:36:54.307Z,24.60
2022-08-02T09:42:10.521Z,24.70
2022-08-02T09:47:18.958Z,25.00
2022-08-02T09:52:43.008Z,25.20
2022-08-02T09:57:50.999Z,25.50
2022-08-02T10:03:13.001Z,25.80
2022-08-02T10:08:25.492Z,25.80
2022-08-02T10:13:33.575Z,25.80
2022-08-02T10:18:39.401Z,25.90
2022-08-02T10:23:44.170Z,26.00
2022-08-02T10:28:49.930Z,26.10
2022-08-02T10:33:54.161Z,26.30
2022-08-02T10:39:00.815Z,26.50
2022-08-02T10:44:02.738Z,26.50
2022-08-02T10:54:36.539Z,26.70
2022-08-02T10:59:38.288Z,26.70
2022-08-02T11:04:40.017Z,26.70
2022-08-02T11:09:43.391Z,26.80
2022-08-02T11:14:58.504Z,26.90
2022-08-02T11:20:12.671Z,26.80
2022-08-02T11:25:27.988Z,26.90
2022-08-02T11:30:34.407Z,27.00
2022-08-02T11:35:38.738Z,27.10
2022-08-02T11:40:40.897Z,27.20
2022-08-02T11:45:42.729Z,27.20
2022-08-02T11:50:44.457Z,27.20
2022-08-02T11:55:46.244Z,27.10
2022-08-02T12:00:48.207Z,27.30
2022-08-02T12:06:04.418Z,27.40
2022-08-02T12:11:07.117Z,27.60
2022-08-02T12:16:31.673Z,27.70
2022-08-02T12:21:33.754Z,27.60
2022-08-02T12:26:43.483Z,27.70
2022-08-02T12:31:57.542Z,27.80
2022-08-02T12:37:08.868Z,27.90
2022-08-02T12:42:14.095Z,27.90
2022-08-02T12:47:16.308Z,28.20
2022-08-02T12:52:24.754Z,28.40
2022-08-02T12:57:26.825Z,28.50
2022-08-02T13:02:28.722Z,28.60
2022-08-02T13:07:30.449Z,28.60
2022-08-02T13:12:32.299Z,28.60
2022-08-02T13:17:34.037Z,28.70
2022-08-02T13:22:38.062Z,28.60
2022-08-02T13:27:53.465Z,28.70
2022-08-02T13:32:59.176Z,28.80
2022-08-02T13:38:04.295Z,28.80
2022-08-02T13:43:06.047Z,28.70
2022-08-02T13:48:17.115Z,28.80
2022-08-02T13:53:20.338Z,28.90
2022-08-02T13:58:22.130Z,29.10
2022-08-02T14:03:23.855Z,29.10
2022-08-02T14:08:45.635Z,29.20
2022-08-02T14:13:47.389Z,29.30
2022-08-02T14:18:49.135Z,29.40
2022-08-02T14:23:51.180Z,29.50
2022-08-02T14:28:53.333Z,29.50
2022-08-02T14:33:55.127Z,29.50
2022-08-02T14:38:57.042Z,29.70
2022-08-02T14:44:04.613Z,29.90
2022-08-02T14:49:07.721Z,30.00
2022-08-02T14:54:11.929Z,30.10
2022-08-02T14:59:16.433Z,30.20
2022-08-02T15:04:18.246Z,30.20
2022-08-02T15:09:21.078Z,30.20
2022-08-02T15:14:26.234Z,30.10
2022-08-02T15:19:51.224Z,30.00
2022-08-02T15:24:50.939Z,30.00
2022-08-02T15:29:52.745Z,30.10
2022-08-02T15:34:54.492Z,30.20
2022-08-02T15:39:56.280Z,30.20
2022-08-02T15:44:58.558Z,30.20
2022-08-02T15:50:00.481Z,30.20
2022-08-02T15:55:06.754Z,30.10
2022-08-02T16:00:17.891Z,30.10
2022-08-02T16:05:21.572Z,30.10
2022-08-02T16:10:23.380Z,30.00
2022-08-02T16:15:25.096Z,29.90
2022-08-02T16:20:26.905Z,29.80
2022-08-02T16:25:28.692Z,29.80
2022-08-02T16:30:30.423Z,29.80
2022-08-02T16:35:32.309Z,29.80
2022-08-02T16:40:34.465Z,29.80
2022-08-02T16:45:37.037Z,29.80
2022-08-02T16:50:39.346Z,29.80
2022-08-02T16:55:51.427Z,29.70
2022-08-02T17:00:53.830Z,29.50
2022-08-02T17:05:56.400Z,29.50
2022-08-02T17:11:03.233Z,29.50
2022-08-02T17:16:25.919Z,29.40
2022-08-02T17:21:28.260Z,29.30
2022-08-02T17:26:30.193Z,29.30
2022-08-02T17:31:37.336Z,29.30
2022-08-02T17:42:07.595Z,29.10
2022-08-02T17:47:11.636Z,29.10
2022-08-02T17:52:50.673Z,29.00
2022-08-02T17:57:58.796Z,28.90
2022-08-02T18:02:58.529Z,28.90
2022-08-02T18:08:01.240Z,28.90
2022-08-02T18:13:05.165Z,28.80
2022-08-02T18:18:07.075Z,28.70
2022-08-02T18:23:13.537Z,28.70
2022-08-02T18:28:15.816Z,28.60
2022-08-02T18:33:54.642Z,28.50
2022-08-02T18:38:39.846Z,28.40
2022-08-02T18:43:47.674Z,28.30
2022-08-02T18:48:49.924Z,28.20
2022-08-02T18:53:53.840Z,28.10
2022-08-02T18:58:56.225Z,27.90
2022-08-02T19:03:58.680Z,27.70
2022-08-02T19:09:11.395Z,27.60
2022-08-02T19:19:38.474Z,27.30
2022-08-02T19:24:42.516Z,27.10
2022-08-02T19:29:48.865Z,26.90
2022-08-02T19:34:52.858Z,26.80
2022-08-02T19:39:54.637Z,26.60
2022-08-02T19:44:56.335Z,26.50
2022-08-02T19:49:58.757Z,26.40
2022-08-02T19:56:00.795Z,26.20
2022-08-02T20:00:24.671Z,26.00
2022-08-02T20:05:27.022Z,25.90
2022-08-02T20:10:29.304Z,25.70
2022-08-02T20:15:51.788Z,25.60
2022-08-02T20:20:53.619Z,25.40
2022-08-02T20:25:55.512Z,25.30
2022-08-02T20:30:58.376Z,25.10
2022-08-02T20:36:09.023Z,25.00
2022-08-02T20:41:10.906Z,24.80
2022-08-02T20:46:23.313Z,24.70
2022-08-02T20:51:33.316Z,24.60
2022-08-02T20:56:35.976Z,24.40
2022-08-02T21:01:38.183Z,24.30
2022-08-02T21:06:41.113Z,24.20
2022-08-02T21:11:50.894Z,24.00
2022-08-02T21:16:52.953Z,23.90
2022-08-02T21:21:54.901Z,23.80
2022-08-02T21:26:58.489Z,23.70
2022-08-02T21:32:00.242Z,23.60
2022-08-02T21:37:09.993Z,23.50
2022-08-02T21:42:12.096Z,23.30
2022-08-02T21:47:27.078Z,23.20
2022-08-02T21:52:29.422Z,23.10
2022-08-02T21:57:34.768Z,23.00
2022-08-02T22:02:36.740Z,22.90
2022-08-02T22:07:38.719Z,22.80
2022-08-02T22:12:40.530Z,22.70
2022-08-02T22:17:51.383Z,22.60
2022-08-02T22:22:55.468Z,22.50
2022-08-02T22:28:36.060Z,22.40
2022-08-02T22:33:37.531Z,22.30
2022-08-02T22:38:44.384Z,22.30
2022-08-02T22:43:46.399Z,22.20
2022-08-02T22:48:48.319Z,22.20
2022-08-02T22:53:50.992Z,22.00
2022-08-02T22:58:51.126Z,29.20
2022-08-02T22:58:57.245Z,27.50
2022-08-02T23:04:14.552Z,21.90
2022-08-02T23:09:16.331Z,21.80
2022-08-02T23:14:18.929Z,21.70
2022-08-02T23:19:39.351Z,21.70
2022-08-02T23:24:41.105Z,21.60
2022-08-02T23:29:43.365Z,21.50
2022-08-02T23:34:45.128Z,21.50
2022-08-02T23:39:47.045Z,21.40
2022-08-02T23:44:48.748Z,21.40
2022-08-02T23:49:50.717Z,21.30
2022-08-02T23:54:52.455Z,21.20
2022-08-02T23:59:54.222Z,21.20
